Time;durP1;ratioP1;P1;durP2;ratioP2;P2;SDS_P1;SDS_P2;PMS_P1;PMS_P2;Temp;Humidity;BMP_temperature;BMP_pressure;BME280_temperature;BME280_humidity;BME280_pressure;Samples;Min_cycle;Max_cycle;Signal;HPM_P1;HPM_P2
2022/07/10 00:00:27;;;;;;;39.17;36.47;;;;;;;19.79;100.00;100693.88;6010387;23;20055;-82
2022/07/10 00:02:53;;;;;;;37.53;34.25;;;;;;;19.38;100.00;100689.22;6009680;23;20027;-81
2022/07/10 00:05:23;;;;;;;36.20;33.60;;;;;;;19.27;100.00;100692.13;6009814;23;20406;-81
2022/07/10 00:07:50;;;;;;;37.05;33.95;;;;;;;19.48;100.00;100690.31;6009685;23;20032;-82
2022/07/10 00:10:18;;;;;;;38.30;34.97;;;;;;;19.84;100.00;100686.63;6008859;23;20023;-81
2022/07/10 00:12:48;;;;;;;35.78;32.67;;;;;;;18.49;100.00;100688.22;6012377;23;20103;-81
2022/07/10 00:15:16;;;;;;;37.53;34.22;;;;;;;18.39;100.00;100687.34;6011629;23;20035;-81
2022/07/10 00:17:44;;;;;;;40.25;36.63;;;;;;;18.46;100.00;100685.25;6011722;23;20024;-80
2022/07/10 00:20:12;;;;;;;38.72;35.33;;;;;;;19.15;100.00;100689.66;6012172;23;20042;-82
2022/07/10 00:22:42;;;;;;;37.78;34.58;;;;;;;19.62;100.00;100691.44;6012353;23;20020;-81
2022/07/10 00:25:13;;;;;;;38.80;35.45;;;;;;;18.98;100.00;100679.91;6011991;23;20027;-82
2022/07/10 00:27:40;;;;;;;37.47;34.28;;;;;;;18.81;100.00;100683.88;6012148;23;20024;-82
2022/07/10 00:30:09;;;;;;;44.38;40.78;;;;;;;18.41;100.00;100683.31;6012422;23;20034;-81
2022/07/10 00:32:36;;;;;;;40.00;36.47;;;;;;;19.07;100.00;100677.53;6010899;23;20032;-81
2022/07/10 00:35:07;;;;;;;37.75;34.35;;;;;;;19.38;100.00;100678.44;6012157;23;20059;-81
2022/07/10 00:37:36;;;;;;;37.63;34.53;;;;;;;19.04;100.00;100677.25;6012042;23;20027;-81
2022/07/10 00:40:06;;;;;;;39.78;36.33;;;;;;;18.56;100.00;100682.63;6012304;23;20027;-81
2022/07/10 00:42:34;;;;;;;39.70;36.10;;;;;;;18.47;100.00;100681.50;6012308;23;20445;-81
2022/07/10 00:45:01;;;;;;;41.65;38.13;;;;;;;18.63;100.00;100677.81;6012163;23;20073;-80
2022/07/10 00:47:29;;;;;;;40.65;37.15;;;;;;;18.11;100.00;100677.72;6012688;23;20023;-81
2022/07/10 00:49:56;;;;;;;46.10;42.00;;;;;;;18.69;100.00;100670.59;6012598;23;20095;-83
2022/07/10 00:52:24;;;;;;;44.25;40.45;;;;;;;18.92;100.00;100666.72;6012545;23;20092;-81
2022/07/10 00:54:53;;;;;;;44.00;40.20;;;;;;;18.55;100.00;100675.63;6012822;23;20465;-81
2022/07/10 00:57:24;;;;;;;39.97;36.13;;;;;;;18.97;100.00;100672.09;6012335;23;20024;-80
2022/07/10 00:59:52;;;;;;;41.03;37.22;;;;;;;18.95;100.00;100675.06;6012686;23;20468;-80
2022/07/10 01:02:20;;;;;;;37.75;34.40;;;;;;;18.99;100.00;100672.66;6012171;23;20027;-81
2022/07/10 01:04:47;;;;;;;37.78;34.58;;;;;;;18.90;100.00;100666.94;6012118;23;20039;-80
2022/07/10 01:07:15;;;;;;;38.15;34.67;;;;;;;17.91;100.00;100679.16;6011873;23;20398;-82
2022/07/10 01:09:42;;;;;;;39.47;35.97;;;;;;;18.80;100.00;100674.19;6012092;23;20063;-81
2022/07/10 01:12:11;;;;;;;40.38;36.88;;;;;;;18.32;100.00;100674.13;6012371;23;20038;-80
2022/07/10 01:14:40;;;;;;;50.13;45.50;;;;;;;18.42;100.00;100678.75;6011954;23;20334;-81
2022/07/10 01:17:09;;;;;;;56.25;51.55;;;;;;;17.80;100.00;100669.41;6012092;23;20035;-80
2022/07/10 01:19:36;;;;;;;62.47;57.35;;;;;;;17.88;100.00;100671.63;6012350;23;20020;-81
2022/07/10 01:22:05;;;;;;;45.58;41.60;;;;;;;18.63;100.00;100661.66;6011614;23;20020;-80
2022/07/10 01:24:32;;;;;;;39.83;36.05;;;;;;;18.21;100.00;100659.78;6012330;23;20024;-80
2022/07/10 01:26:59;;;;;;;42.17;38.38;;;;;;;18.44;100.00;100665.88;6012298;23;20024;-81
2022/07/10 01:29:26;;;;;;;43.92;40.05;;;;;;;18.56;100.00;100663.78;6012169;23;20023;-80
2022/07/10 01:31:53;;;;;;;37.75;34.42;;;;;;;18.56;100.00;100658.41;6011706;23;20023;-82
2022/07/10 01:34:20;;;;;;;40.15;36.47;;;;;;;18.54;100.00;100668.63;6012235;23;20086;-81
2022/07/10 01:36:48;;;;;;;41.22;37.72;;;;;;;18.11;100.00;100650.84;6011827;23;20031;-81
2022/07/10 01:39:16;;;;;;;40.65;37.13;;;;;;;17.81;100.00;100663.78;6012621;23;20095;-80
2022/07/10 01:41:43;;;;;;;39.42;35.92;;;;;;;17.57;100.00;100665.94;6012284;23;20103;-81
2022/07/10 01:44:10;;;;;;;39.20;35.85;;;;;;;17.55;100.00;100665.41;6012200;23;20028;-81
2022/07/10 01:46:44;;;;;;;42.10;38.40;;;;;;;18.39;100.00;100663.94;6011565;23;20442;-84
2022/07/10 01:49:11;;;;;;;43.03;39.15;;;;;;;18.33;100.00;100661.50;6011961;23;20107;-82
2022/07/10 01:51:38;;;;;;;40.78;37.08;;;;;;;18.50;100.00;100662.16;6012179;23;20320;-82
2022/07/10 01:54:05;;;;;;;41.47;37.88;;;;;;;18.36;100.00;100663.66;6012152;23;20315;-81
2022/07/10 01:56:34;;;;;;;46.25;42.45;;;;;;;18.24;100.00;100656.59;6011844;23;20027;-83
2022/07/10 01:59:03;;;;;;;40.78;37.28;;;;;;;18.28;100.00;100652.34;6011906;23;20051;-82
2022/07/10 02:01:30;;;;;;;36.95;33.72;;;;;;;18.30;100.00;100658.25;6001943;23;20046;-82
2022/07/10 02:06:41;;;;;;;38.38;34.97;;;;;;;18.26;100.00;100649.09;6011834;23;20091;-82
2022/07/10 02:09:07;;;;;;;38.63;35.22;;;;;;;18.44;100.00;100647.06;6011529;23;20461;-82
2022/07/10 02:11:36;;;;;;;38.55;35.17;;;;;;;18.63;100.00;100653.59;6011981;23;20050;-82
2022/07/10 02:14:02;;;;;;;40.63;37.15;;;;;;;18.14;100.00;100658.41;6011500;23;20331;-82
2022/07/10 02:16:29;;;;;;;38.85;35.53;;;;;;;18.63;100.00;100658.97;6011463;23;20032;-81
2022/07/10 02:18:56;;;;;;;41.58;38.17;;;;;;;18.54;100.00;100652.47;6011740;23;20032;-81
2022/07/10 02:21:23;;;;;;;43.58;39.47;;;;;;;18.77;100.00;100649.41;6011131;23;20039;-81
2022/07/10 02:23:50;;;;;;;44.90;41.22;;;;;;;18.78;100.00;100644.84;6011674;23;20034;-81
2022/07/10 02:26:17;;;;;;;41.55;38.15;;;;;;;18.70;100.00;100642.63;6011459;23;20027;-81
2022/07/10 02:28:45;;;;;;;50.25;45.88;;;;;;;18.50;100.00;100643.31;6011809;23;20023;-81
2022/07/10 02:31:12;;;;;;;45.85;42.10;;;;;;;18.71;100.00;100655.00;6010718;23;20350;-82
2022/07/10 02:33:39;;;;;;;45.28;41.47;;;;;;;18.88;100.00;100654.81;6010480;23;20024;-82
2022/07/10 02:36:06;;;;;;;43.08;39.33;;;;;;;18.88;100.00;100660.22;6011033;23;20031;-83
2022/07/10 02:38:33;;;;;;;43.72;40.13;;;;;;;18.59;100.00;100657.09;6011498;23;20108;-81
2022/07/10 02:41:00;;;;;;;43.25;39.55;;;;;;;18.44;100.00;100650.53;6011361;23;20031;-82
2022/07/10 02:43:27;;;;;;;41.25;37.67;;;;;;;17.97;100.00;100654.00;6011696;23;20452;-82
2022/07/10 02:45:55;;;;;;;38.97;35.67;;;;;;;18.57;100.00;100651.97;6011191;23;20342;-82
2022/07/10 02:48:22;;;;;;;39.35;36.03;;;;;;;18.63;100.00;100644.72;6010975;23;20433;-82
2022/07/10 02:50:49;;;;;;;37.95;34.40;;;;;;;17.59;100.00;100647.69;6011528;23;20035;-82
2022/07/10 02:53:16;;;;;;;38.90;35.47;;;;;;;18.64;100.00;100652.56;6011515;23;20024;-82
2022/07/10 02:55:43;;;;;;;37.33;33.92;;;;;;;18.59;100.00;100659.78;6011408;23;20457;-83
2022/07/10 02:58:10;;;;;;;38.42;35.13;;;;;;;18.09;100.00;100659.16;6011068;23;20027;-86
2022/07/10 03:00:37;;;;;;;40.72;36.97;;;;;;;18.12;100.00;100655.97;6011010;23;20034;-84
2022/07/10 03:03:05;;;;;;;38.20;34.92;;;;;;;19.01;100.00;100661.63;6010796;23;20422;-83
2022/07/10 03:05:33;;;;;;;37.30;34.28;;;;;;;18.80;100.00;100655.34;6011049;23;20020;-82
2022/07/10 03:08:00;;;;;;;37.33;34.13;;;;;;;18.99;100.00;100654.63;6011580;23;20031;-81
2022/07/10 03:10:27;;;;;;;37.05;33.33;;;;;;;18.69;100.00;100660.63;6011033;23;20020;-82
2022/07/10 03:12:54;;;;;;;37.50;34.28;;;;;;;19.10;100.00;100646.59;6011136;23;20468;-84
2022/07/10 03:15:21;;;;;;;36.38;33.13;;;;;;;19.03;100.00;100654.88;6011277;23;20028;-82
2022/07/10 03:17:48;;;;;;;37.72;34.13;;;;;;;18.55;100.00;100654.13;6011368;23;20039;-81
2022/07/10 03:20:16;;;;;;;37.88;34.58;;;;;;;19.22;100.00;100656.03;6011267;23;20023;-81
2022/07/10 03:22:43;;;;;;;37.17;34.17;;;;;;;19.50;100.00;100650.47;6010828;23;20395;-82
2022/07/10 03:25:10;;;;;;;36.38;33.28;;;;;;;19.62;100.00;100653.72;6011311;23;20031;-82
2022/07/10 03:27:37;;;;;;;37.95;34.65;;;;;;;19.53;100.00;100655.31;6010908;23;20091;-82
2022/07/10 03:30:05;;;;;;;43.25;39.78;;;;;;;19.65;100.00;100651.31;6010924;23;20033;-82
2022/07/10 03:32:33;;;;;;;42.90;39.17;;;;;;;19.44;100.00;100644.25;6010940;23;20099;-81
2022/07/10 03:35:00;;;;;;;42.72;39.28;;;;;;;19.65;100.00;100645.13;6011153;23;20035;-81
2022/07/10 03:37:30;;;;;;;40.33;37.03;;;;;;;19.81;100.00;100638.66;6010748;23;20028;-81
2022/07/10 03:39:57;;;;;;;43.20;39.70;;;;;;;19.34;100.00;100644.25;6011223;23;20020;-85
2022/07/10 03:42:24;;;;;;;45.25;41.63;;;;;;;19.50;100.00;100645.88;6011120;23;20028;-82
2022/07/10 03:44:51;;;;;;;42.63;38.90;;;;;;;19.90;100.00;100645.13;6010690;23;20020;-81
2022/07/10 03:47:19;;;;;;;43.10;39.50;;;;;;;19.68;100.00;100634.63;6010336;23;20028;-82
2022/07/10 03:49:46;;;;;;;42.55;38.75;;;;;;;19.94;100.00;100634.63;6010209;23;20023;-82
2022/07/10 03:52:13;;;;;;;40.15;36.60;;;;;;;20.18;100.00;100629.47;6010869;23;20028;-82
2022/07/10 03:54:41;;;;;;;39.50;36.13;;;;;;;20.25;100.00;100630.00;6010482;23;20053;-82
2022/07/10 03:59:52;;;;;;;38.90;35.75;;;;;;;20.29;100.00;100633.78;6010693;23;20034;-80
2022/07/10 04:02:20;;;;;;;41.05;37.85;;;;;;;20.23;100.00;100647.53;6009830;23;20345;-80
2022/07/10 04:04:47;;;;;;;40.40;37.00;;;;;;;20.10;100.00;100652.41;6010477;23;20024;-80
2022/07/10 04:07:14;;;;;;;38.67;35.17;;;;;;;19.54;100.00;100659.63;6010765;23;20108;-81
2022/07/10 04:09:42;;;;;;;39.33;36.05;;;;;;;19.30;100.00;100651.22;6011114;23;20020;-81
2022/07/10 04:12:09;;;;;;;39.08;35.88;;;;;;;19.96;100.00;100659.41;6010760;23;20035;-81
2022/07/10 04:14:36;;;;;;;38.17;35.03;;;;;;;20.11;100.00;100653.22;6010380;23;20020;-80
2022/07/10 04:17:03;;;;;;;39.10;36.00;;;;;;;20.15;100.00;100659.66;6010606;23;20039;-81
2022/07/10 04:19:31;;;;;;;44.25;40.25;;;;;;;20.19;100.00;100662.66;6010691;23;20052;-80
2022/07/10 04:21:58;;;;;;;39.55;36.20;;;;;;;19.95;100.00;100663.19;6010708;23;20027;-81
2022/07/10 04:24:25;;;;;;;43.63;39.85;;;;;;;19.98;100.00;100665.34;6009451;23;20315;-81
2022/07/10 04:26:54;;;;;;;42.65;39.05;;;;;;;20.38;100.00;100663.69;6010541;23;20020;-81
2022/07/10 04:29:20;;;;;;;42.17;38.83;;;;;;;20.21;100.00;100666.69;6009399;23;20024;-81
2022/07/10 04:31:47;;;;;;;42.03;38.28;;;;;;;20.49;100.00;100673.38;6009722;23;20017;-81
2022/07/10 04:34:14;;;;;;;46.10;42.47;;;;;;;20.54;100.00;100654.50;6010342;23;20028;-81
2022/07/10 04:36:41;;;;;;;42.25;38.85;;;;;;;20.54;100.00;100667.19;6010501;23;20027;-83
2022/07/10 04:39:08;;;;;;;43.58;40.08;;;;;;;20.52;100.00;100667.47;6010955;23;20032;-82
2022/07/10 04:41:35;;;;;;;44.55;40.70;;;;;;;20.44;100.00;100673.38;6011316;23;20024;-81
2022/07/10 04:44:04;;;;;;;45.10;41.42;;;;;;;20.44;100.00;100675.28;6010606;23;20020;-81
2022/07/10 04:46:31;;;;;;;42.80;39.10;;;;;;;20.35;100.00;100666.94;6010343;23;20020;-80
2022/07/10 04:48:58;;;;;;;45.25;41.35;;;;;;;20.29;100.00;100673.41;6010744;23;20028;-80
2022/07/10 04:51:25;;;;;;;45.03;41.05;;;;;;;20.32;100.00;100676.38;6010278;23;20482;-80
2022/07/10 04:53:52;;;;;;;44.90;41.35;;;;;;;20.51;100.00;100673.91;6010655;23;20023;-81
2022/07/10 04:56:19;;;;;;;44.95;41.20;;;;;;;20.35;100.00;100670.44;6010788;23;20035;-81
2022/07/10 04:58:46;;;;;;;43.00;39.50;;;;;;;20.14;100.00;100671.53;6012096;23;20020;-81
2022/07/10 05:01:14;;;;;;;43.05;39.30;;;;;;;20.60;100.00;100668.78;6009939;23;20096;-81
2022/07/10 05:03:41;;;;;;;43.65;39.90;;;;;;;20.67;100.00;100660.44;6012362;23;20020;-81
2022/07/10 05:06:07;;;;;;;48.13;44.33;;;;;;;20.63;100.00;100665.56;6012144;23;20422;-81
2022/07/10 05:08:34;;;;;;;44.38;40.55;;;;;;;20.70;100.00;100668.78;6012342;23;20342;-81
2022/07/10 05:11:01;;;;;;;43.72;39.83;;;;;;;20.98;100.00;100669.22;6011850;23;20087;-81
2022/07/10 05:13:28;;;;;;;42.28;38.88;;;;;;;21.27;100.00;100663.94;6011543;23;20028;-81
2022/07/10 05:15:55;;;;;;;42.85;39.42;;;;;;;21.27;100.00;100667.47;6012381;23;20099;-81
2022/07/10 05:18:23;;;;;;;44.70;40.53;;;;;;;21.41;100.00;100670.38;6012160;23;20039;-82
2022/07/10 05:20:50;;;;;;;40.97;37.67;;;;;;;21.32;100.00;100663.13;6011677;23;20039;-81
2022/07/10 05:23:17;;;;;;;40.67;37.47;;;;;;;21.61;100.00;100669.47;6010993;23;20092;-82
2022/07/10 05:25:44;;;;;;;43.15;39.83;;;;;;;22.08;100.00;100672.59;6011826;23;20027;-81
2022/07/10 05:28:12;;;;;;;42.03;38.65;;;;;;;22.24;100.00;100670.59;6011791;23;20330;-81
2022/07/10 05:30:39;;;;;;;40.85;37.28;;;;;;;22.51;100.00;100667.34;6011223;23;20059;-81
2022/07/10 05:33:06;;;;;;;42.33;38.92;;;;;;;22.44;100.00;100666.91;6010654;23;20088;-81
2022/07/10 05:35:34;;;;;;;43.08;39.83;;;;;;;22.40;100.00;100666.66;6010783;23;20031;-81
2022/07/10 05:38:01;;;;;;;42.20;38.45;;;;;;;22.21;100.00;100669.28;6010496;23;20020;-81
2022/07/10 05:40:29;;;;;;;42.33;38.85;;;;;;;22.73;100.00;100666.88;6010966;23;20349;-80
2022/07/10 05:42:57;;;;;;;39.72;36.33;;;;;;;22.33;100.00;100669.72;6010617;23;20766;-81
2022/07/10 05:45:24;;;;;;;41.67;38.28;;;;;;;22.43;100.00;100662.59;6010065;23;20352;-81
2022/07/10 05:47:51;;;;;;;39.83;36.38;;;;;;;22.44;100.00;100665.00;6011117;23;20019;-85
2022/07/10 05:50:18;;;;;;;41.58;38.17;;;;;;;22.58;100.00;100660.53;6011837;23;20460;-81
2022/07/10 05:52:47;;;;;;;39.95;36.70;;;;;;;22.75;100.00;100653.81;6011664;23;20035;-81
2022/07/10 05:55:14;;;;;;;40.42;37.20;;;;;;;22.77;100.00;100657.88;6011821;23;20031;-82
2022/07/10 05:57:41;;;;;;;39.13;36.15;;;;;;;23.31;100.00;100650.44;6011835;23;20036;-81
2022/07/10 06:00:10;;;;;;;37.95;34.75;;;;;;;23.01;100.00;100657.88;6011711;23;20540;-81
2022/07/10 06:02:37;;;;;;;37.30;34.13;;;;;;;23.12;100.00;100647.72;6011370;23;20453;-81
2022/07/10 06:05:04;;;;;;;39.03;35.85;;;;;;;22.95;100.00;100644.69;6011505;23;20346;-81
2022/07/10 06:07:34;;;;;;;39.75;36.53;;;;;;;22.84;100.00;100652.94;6010450;23;20024;-81
2022/07/10 06:10:02;;;;;;;39.67;36.45;;;;;;;22.82;100.00;100654.31;6010640;23;20024;-81
2022/07/10 06:12:29;;;;;;;38.90;36.00;;;;;;;22.61;100.00;100664.56;6011348;23;20030;-82
2022/07/10 06:14:57;;;;;;;39.42;36.10;;;;;;;22.66;100.00;100650.94;6011543;23;20437;-82
2022/07/10 06:17:24;;;;;;;37.55;34.60;;;;;;;23.27;100.00;100652.94;6011740;23;20024;-83
2022/07/10 06:19:51;;;;;;;35.90;33.20;;;;;;;23.71;100.00;100661.78;6012080;23;20338;-81
2022/07/10 06:22:33;;;;;;;39.17;36.08;;;;;;;23.68;100.00;100660.44;6011611;23;20027;-82
2022/07/10 06:25:05;;;;;;;39.38;36.35;;;;;;;24.11;100.00;100662.22;6011954;23;20352;-82
2022/07/10 06:27:32;;;;;;;39.63;36.42;;;;;;;24.01;100.00;100660.50;6010704;23;20036;-81
2022/07/10 06:30:00;;;;;;;35.65;33.08;;;;;;;23.40;100.00;100659.53;6011125;23;20039;-81
2022/07/10 06:32:28;;;;;;;35.58;32.72;;;;;;;22.90;100.00;100656.34;6010549;23;20034;-81
2022/07/10 06:34:56;;;;;;;33.42;30.75;;;;;;;22.82;100.00;100660.53;6011028;23;20449;-81
2022/07/10 06:37:24;;;;;;;32.90;30.60;;;;;;;23.58;100.00;100651.69;6011148;23;20024;-81
2022/07/10 06:39:51;;;;;;;32.28;29.92;;;;;;;23.53;100.00;100668.81;6011336;23;20031;-81
2022/07/10 06:42:20;;;;;;;34.20;31.63;;;;;;;23.44;100.00;100660.53;6011491;23;20505;-82
2022/07/10 06:44:47;;;;;;;34.78;31.95;;;;;;;23.80;100.00;100660.03;6011007;23;20032;-81
2022/07/10 06:50:01;;;;;;;33.28;30.45;;;;;;;23.84;100.00;100647.47;6010901;23;20034;-83
2022/07/10 06:52:28;;;;;;;34.00;31.48;;;;;;;23.48;100.00;100652.63;6011198;23;20031;-84
2022/07/10 06:54:55;;;;;;;32.60;30.13;;;;;;;24.18;100.00;100646.38;6011239;23;20028;-82
2022/07/10 06:57:23;;;;;;;31.50;29.20;;;;;;;24.59;100.00;100648.34;6011395;23;20038;-82
2022/07/10 06:59:51;;;;;;;31.40;28.88;;;;;;;23.99;100.00;100652.69;6011563;23;20034;-81
2022/07/10 07:02:18;;;;;;;30.95;28.65;;;;;;;24.22;100.00;100652.81;6010923;23;20028;-82
2022/07/10 07:04:45;;;;;;;29.95;27.75;;;;;;;24.54;100.00;100654.69;5971455;23;20028;-82
2022/07/10 07:07:12;;;;;;;29.42;27.10;;;;;;;25.15;100.00;100646.44;6010869;23;20434;-81
2022/07/10 07:09:40;;;;;;;27.85;25.83;;;;;;;25.01;100.00;100643.69;6011657;23;20023;-83
2022/07/10 07:12:08;;;;;;;30.27;28.17;;;;;;;24.72;100.00;100647.56;6011713;23;20023;-82
2022/07/10 07:14:37;;;;;;;30.60;28.27;;;;;;;25.22;100.00;100647.59;6010987;23;20397;-82
2022/07/10 07:17:08;;;;;;;29.75;27.20;;;;;;;25.13;100.00;100649.44;6011186;23;20031;-81
2022/07/10 07:25:00;;;;;;;30.08;27.67;;;;;;;25.31;100.00;100644.97;6011018;23;20528;-82
2022/07/10 07:27:27;;;;;;;30.38;28.08;;;;;;;25.42;100.00;100634.66;6010471;23;20522;-83
2022/07/10 07:29:56;;;;;;;29.48;27.27;;;;;;;24.40;100.00;100645.69;6010711;23;20031;-82
2022/07/10 07:32:23;;;;;;;30.75;28.65;;;;;;;24.92;100.00;100636.25;6011069;23;20023;-82
2022/07/10 07:34:49;;;;;;;29.75;27.60;;;;;;;25.19;100.00;100637.34;6010691;23;20035;-81
2022/07/10 07:37:16;;;;;;;28.55;26.08;;;;;;;25.66;100.00;100631.63;6011309;23;20027;-82
2022/07/10 07:39:43;;;;;;;29.67;27.55;;;;;;;25.19;100.00;100631.13;6011047;23;20099;-82
2022/07/10 07:42:10;;;;;;;29.65;27.17;;;;;;;24.89;100.00;100634.16;6011522;23;20027;-83
2022/07/10 07:44:37;;;;;;;33.08;30.17;;;;;;;24.71;100.00;100631.56;6011466;23;20035;-83
2022/07/10 07:47:05;;;;;;;28.67;26.70;;;;;;;25.41;100.00;100625.69;6011278;23;20123;-81
2022/07/10 07:49:32;;;;;;;31.85;29.75;;;;;;;24.85;100.00;100630.44;6010712;23;20449;-82
2022/07/10 07:52:00;;;;;;;29.98;27.88;;;;;;;25.49;98.05;100632.34;6010698;23;20027;-81
2022/07/10 07:54:27;;;;;;;28.88;26.95;;;;;;;25.44;100.00;100627.81;6010840;23;20028;-81
2022/07/10 07:56:53;;;;;;;29.40;27.25;;;;;;;25.28;96.51;100623.84;6011004;23;20023;-81
2022/07/10 07:59:20;;;;;;;30.58;28.15;;;;;;;25.96;100.00;100622.78;6011208;23;20024;-82
2022/07/10 08:01:47;;;;;;;29.40;27.27;;;;;;;25.48;98.38;100625.28;6010529;23;20020;-81
2022/07/10 08:04:15;;;;;;;29.40;27.20;;;;;;;26.50;100.00;100631.66;6010728;23;20406;-81
2022/07/10 08:06:42;;;;;;;30.40;28.20;;;;;;;26.36;97.02;100624.72;6011128;23;20027;-81
2022/07/10 08:09:09;;;;;;;30.98;28.77;;;;;;;26.21;94.89;100617.78;6010796;23;20039;-83
2022/07/10 08:11:36;;;;;;;31.98;29.33;;;;;;;26.64;100.00;100620.69;6010687;23;20024;-81
2022/07/10 08:14:03;;;;;;;31.67;29.23;;;;;;;26.91;100.00;100621.53;6010276;23;20031;-83
2022/07/10 08:16:30;;;;;;;30.95;28.63;;;;;;;27.57;100.00;100619.50;6010739;23;20047;-82
2022/07/10 08:18:57;;;;;;;32.80;30.60;;;;;;;26.98;100.00;100627.31;6011016;23;20019;-82
2022/07/10 08:21:26;;;;;;;35.08;32.47;;;;;;;26.34;100.00;100630.47;6010907;23;20031;-82
2022/07/10 08:23:53;;;;;;;32.55;30.25;;;;;;;26.98;100.00;100621.06;6010691;23;20031;-87
2022/07/10 08:26:20;;;;;;;29.92;27.48;;;;;;;27.16;100.00;100622.72;6011153;23;20028;-82
2022/07/10 08:28:47;;;;;;;31.40;29.20;;;;;;;27.44;100.00;100627.84;6010217;23;20024;-84
2022/07/10 08:31:14;;;;;;;33.08;30.58;;;;;;;27.18;100.00;100626.72;6010503;23;20466;-83
2022/07/10 08:33:41;;;;;;;30.80;28.30;;;;;;;27.18;100.00;100624.00;6012127;23;20028;-80
2022/07/10 08:36:08;;;;;;;33.42;30.23;;;;;;;27.23;100.00;100627.69;6012825;23;20027;-80
2022/07/10 08:38:36;;;;;;;31.15;28.95;;;;;;;25.53;100.00;100636.03;6012675;23;20457;-80
2022/07/10 08:41:06;;;;;;;34.20;31.98;;;;;;;25.39;100.00;100636.09;6012895;23;20060;-81
2022/07/10 08:43:33;;;;;;;32.45;30.15;;;;;;;26.73;100.00;100637.03;6011518;23;20027;-81
2022/07/10 08:46:01;;;;;;;35.15;32.75;;;;;;;25.73;100.00;100634.75;6012573;23;20039;-81
2022/07/10 08:48:33;;;;;;;34.45;31.95;;;;;;;25.24;100.00;100634.53;6012493;23;20028;-81
2022/07/10 08:51:05;;;;;;;;;;;;;;;26.30;100.00;100634.94;6013278;23;20038;-82
2022/07/10 08:53:33;;;;;;;32.55;30.00;;;;;;;26.16;100.00;100626.06;6012505;23;19929;-87
2022/07/10 08:56:02;;;;;;;33.47;31.25;;;;;;;25.09;100.00;100632.13;6012070;23;20047;-81
2022/07/10 08:58:33;;;;;;;32.03;29.60;;;;;;;25.59;100.00;100630.16;6011921;23;20059;-82
2022/07/10 09:01:00;;;;;;;30.65;28.25;;;;;;;27.18;100.00;100620.47;6011637;23;20035;-81
2022/07/10 09:03:27;;;;;;;31.25;29.08;;;;;;;27.57;100.00;100619.50;6012676;23;20023;-80
2022/07/10 09:05:54;;;;;;;29.95;27.73;;;;;;;27.14;100.00;100619.47;6012035;23;20035;-81
2022/07/10 09:08:27;;;;;;;28.63;26.42;;;;;;;26.76;100.00;100611.91;6012103;23;20040;-81
2022/07/10 09:11:13;;;;;;;29.08;26.98;;;;;;;26.95;100.00;100614.31;6012136;23;20424;-80
2022/07/10 09:13:51;;;;;;;28.10;26.20;;;;;;;27.47;100.00;100617.09;6011710;23;20024;-80
2022/07/10 09:16:24;;;;;;;29.90;27.83;;;;;;;27.17;96.51;100614.22;6012177;23;20031;-81
2022/07/10 09:18:51;;;;;;;29.08;26.98;;;;;;;26.45;100.00;100612.75;6011817;23;20032;-82
2022/07/10 09:21:18;;;;;;;29.83;27.25;;;;;;;27.17;92.01;100611.50;6006720;23;20110;-80
2022/07/10 09:23:45;;;;;;;29.13;27.13;;;;;;;27.94;88.63;100603.56;6008669;23;20488;-80
2022/07/10 09:26:12;;;;;;;27.83;25.92;;;;;;;27.00;84.70;100605.22;6008385;23;20032;-80
2022/07/10 09:28:38;;;;;;;28.70;26.60;;;;;;;26.47;78.05;100605.03;6008639;23;20031;-79
2022/07/10 09:31:07;;;;;;;27.23;25.33;;;;;;;27.14;83.03;100608.56;6008292;23;20042;-81
2022/07/10 09:33:35;;;;;;;27.73;25.77;;;;;;;27.36;78.17;100610.38;6009000;23;20031;-81
2022/07/10 09:36:07;;;;;;;29.17;26.80;;;;;;;27.20;74.02;100604.59;6008524;23;20345;-82
2022/07/10 09:38:52;;;;;;;;;;;;;;;26.42;76.14;100612.56;6009564;23;20028;-80
2022/07/10 09:41:21;;;;;;;27.67;25.73;;;;;;;26.84;75.16;100602.94;6008492;23;19971;-82
2022/07/10 09:43:49;;;;;;;29.73;27.52;;;;;;;26.60;69.72;100595.19;6010400;23;20031;-80
2022/07/10 09:46:19;;;;;;;29.45;27.38;;;;;;;26.81;73.61;100600.03;6011825;23;20023;-83
2022/07/10 09:48:46;;;;;;;27.95;25.85;;;;;;;26.72;78.94;100594.59;6011477;23;20452;-80
2022/07/10 09:51:13;;;;;;;29.20;26.98;;;;;;;26.23;98.07;100601.91;6011826;23;20020;-80
2022/07/10 09:53:42;;;;;;;28.83;26.73;;;;;;;26.45;100.00;100604.56;6011455;23;20087;-81
2022/07/10 09:56:11;;;;;;;29.40;27.40;;;;;;;26.95;99.29;100603.44;6010936;23;20026;-82
2022/07/10 09:58:39;;;;;;;27.92;25.95;;;;;;;26.55;100.00;100600.78;6011290;23;20024;-82
2022/07/10 10:01:07;;;;;;;27.65;25.65;;;;;;;26.61;100.00;100596.78;6010966;23;20034;-81
2022/07/10 10:03:37;;;;;;;29.55;27.23;;;;;;;27.11;100.00;100598.31;6011105;23;20028;-81
2022/07/10 10:06:09;;;;;;;27.83;25.75;;;;;;;26.93;100.00;100592.88;6011310;23;20024;-81
2022/07/10 10:08:45;;;;;;;28.98;26.65;;;;;;;26.35;100.00;100590.44;6007542;23;20031;-81
2022/07/10 10:11:16;;;;;;;30.17;27.88;;;;;;;26.65;100.00;100591.50;6006443;23;20038;-81
2022/07/10 10:13:44;;;;;;;30.75;28.38;;;;;;;26.92;100.00;100582.25;6007380;23;20023;-80
2022/07/10 10:16:13;;;;;;;31.15;28.80;;;;;;;26.93;99.56;100576.50;6007833;23;20031;-81
2022/07/10 10:21:26;;;;;;;30.15;27.85;;;;;;;27.75;78.31;100573.13;6007248;23;20063;-81
2022/07/10 10:24:01;;;;;;;30.67;28.17;;;;;;;27.65;84.26;100574.22;6009027;23;20103;-84
2022/07/10 10:26:30;;;;;;;34.20;31.52;;;;;;;27.96;84.18;100574.03;6007494;23;20345;-80
2022/07/10 10:29:00;;;;;;;35.28;32.35;;;;;;;28.09;84.79;100569.50;6008608;23;20024;-79
2022/07/10 10:31:28;;;;;;;35.63;32.60;;;;;;;27.88;91.11;100566.66;6007359;23;20031;-80
2022/07/10 10:33:57;;;;;;;32.30;29.50;;;;;;;28.12;78.59;100557.13;6008201;23;20039;-80
2022/07/10 10:36:49;;;;;;;31.83;29.02;;;;;;;28.93;80.36;100548.63;6008133;23;20024;-79
2022/07/10 10:39:18;;;;;;;30.83;28.45;;;;;;;28.06;75.44;100560.03;6008416;23;20031;-81
2022/07/10 10:41:51;;;;;;;30.02;27.38;;;;;;;28.76;66.59;100546.00;6008060;23;20036;-81
2022/07/10 10:44:35;;;;;;;29.05;27.02;;;;;;;28.77;66.38;100545.66;6008100;23;20028;-80
2022/07/10 10:47:09;;;;;;;32.08;29.42;;;;;;;27.40;68.17;100554.06;6008045;23;20031;-80
2022/07/10 10:49:59;;;;;;;32.83;29.92;;;;;;;28.11;72.70;100552.78;6007946;23;20337;-81
2022/07/10 10:52:26;;;;;;;32.95;30.25;;;;;;;28.07;73.78;100553.41;6006922;23;20338;-82
2022/07/10 10:55:14;;;;;;;33.72;30.95;;;;;;;27.71;76.42;100550.31;6008012;23;20024;-81
2022/07/10 10:57:50;;;;;;;33.10;30.48;;;;;;;28.08;76.63;100554.25;6007780;23;20032;-84
2022/07/10 11:00:41;;;;;;;32.72;29.83;;;;;;;28.05;82.96;100547.50;6007359;23;20028;-80
2022/07/10 11:03:19;;;;;;;33.38;30.30;;;;;;;28.53;75.39;100540.88;5979745;24;20055;-81
2022/07/10 11:05:49;;;;;;;29.55;27.20;;;;;;;27.34;80.47;100550.72;5979790;24;20024;-81
2022/07/10 11:08:38;;;;;;;30.65;28.17;;;;;;;26.23;82.79;100548.31;5980192;24;20024;-80
2022/07/10 11:11:39;;;;;;;29.98;27.58;;;;;;;27.28;81.71;100537.56;5980307;24;20039;-81
2022/07/10 11:14:08;;;;;;;28.77;26.30;;;;;;;27.44;77.33;100527.75;5950195;24;20028;-81
2022/07/10 11:16:35;;;;;;;29.10;26.88;;;;;;;27.81;75.01;100522.72;5975110;24;20051;-80
2022/07/10 11:19:04;;;;;;;28.20;25.85;;;;;;;28.06;74.84;100516.34;5980261;24;20030;-82
2022/07/10 11:21:48;;;;;;;27.00;24.90;;;;;;;28.52;75.43;100513.88;5979803;24;20063;-83
2022/07/10 11:24:39;;;;;;;26.23;24.27;;;;;;;28.49;67.54;100507.13;5982355;24;20031;-85
2022/07/10 11:27:16;;;;;;;26.27;24.27;;;;;;;29.10;65.13;100508.63;5983137;24;20024;-80